Hudson, New Hampshire
Current Conditions -  °F | °C
As of 6:07 PM on Wednesday 22 Oct 2014 (Local Time) from KASH Reporting Station
Light Rain Light Rain  
Wind Chill: 42°   Ceiling: 1100
Heat Index: 48°   Visibility: 2.5mi
Dew Point: 46°   Wind: 17mph
Humidity: 93%   Direction: 20°NNE
Pressure: 29.97"   Gusts: 23mph
Location:  42.76°N, 71.44°W
Report Text: KASH 222207Z 02015G20KT 330V050 2 1/2SM -RA BR BKN011 OVC017 09/08 A2997 RMK AO2 BKN V SCT P0000 $
Loading
Personal Weather Stations






























Interactive Weather Map
Tropical Storm Tracking
New forecast layout! Learn more

10-Day Weather Forecast

Advertisements
Track Severe Weather on mobile